Raymond, Ohio
Current Conditions -  °F | °C
As of 11:53 AM on Tuesday 27 Jan 2015 (Local Time) from KMRT Reporting Station
Clear Clear  
Wind Chill:   Ceiling: Unl
Heat Index: 17°   Visibility: 7mi
Dew Point: 14°   Wind: 8mph
Humidity: 88%   Direction: 350°N
Pressure: 30.08"   Gusts: NA
Location:  40.33°N, 83.47°W
Report Text: KMRT 271653Z AUTO 35007KT 7SM CLR M08/M10 A3008 RMK AO2 T10851102
Loading
Personal Weather Stations






























Interactive Weather Map New forecast layout! Learn more

10-Day Weather Forecast

Advertisements
Track Severe Weather on mobile